»·PEaware :: WAT2019 KPDX-KBIL

WAT2019 :: KPDX-KBIL

FLIGHT INFORMATION

Flight Status: Arrived
Operator:
Walker Air Transport
More flights by this operator :: More flights under this callsign
Pilot: Bogdan R. (37247)
Aircraft: BOEING 737-800
(B738)
More flights by this aircraft type
Origin: KPDX Portland Intl
United States
Destination: KBIL Billings Logan Intl
United States
More flights between these airports :: More routes between these airports
Route: LAVAA6 PDT J16 HIA BYRCH CRAZI3
File this flight plan on PilotEdge
Remarks: RMK / SIMBRIEF
Altitude:
(Current/Filed)
39,000ft
Speed:
(Current/Filed)
455kts
Departed: 02-Oct-22 07:23 PM
Arrived: 02-Oct-22 09:01 PM
Distance/Time
Traveled:
589nm/1:38
Distance/Time
To Go:
Arrived

Flight Plot

Page will automatically refresh every two minutes.

Flight plan parsing failed; only flown route is shown


Map Options




Map Legend


Flown Route
Filed Route
Departure Airport
Arrival Airport
Navaid (VOR, NDB)
Fix

Horizontal Profiles

Position Reports

Time Latitude Longitude Heading Altitude Ground
Speed
02-Oct-22 18:50 45.591934 -122.596984 149 38ft 0kts
02-Oct-22 18:51 45.591934 -122.596984 149 38ft 0kts
02-Oct-22 18:52 45.591934 -122.596984 149 38ft 0kts
02-Oct-22 18:53 45.591934 -122.596984 149 38ft 0kts
02-Oct-22 18:54 45.591934 -122.596984 149 38ft 0kts
02-Oct-22 18:55 45.591934 -122.596984 149 38ft 0kts
02-Oct-22 18:56 45.591934 -122.596984 149 38ft 0kts
02-Oct-22 18:57 45.591934 -122.596984 149 38ft 0kts
02-Oct-22 18:58 45.591934 -122.596984 149 38ft 0kts
02-Oct-22 18:59 45.591934 -122.596984 149 38ft 0kts
02-Oct-22 19:00 45.591934 -122.596984 149 38ft 0kts
02-Oct-22 19:01 45.591934 -122.596984 149 38ft 0kts
02-Oct-22 19:02 45.591934 -122.596984 149 38ft 0kts
02-Oct-22 19:03 45.591934 -122.596984 149 38ft 0kts
02-Oct-22 19:04 45.591934 -122.596984 149 38ft 0kts
02-Oct-22 19:05 45.591934 -122.596984 149 38ft 0kts
02-Oct-22 19:06 45.591934 -122.596984 149 38ft 0kts
02-Oct-22 19:07 45.591934 -122.596984 149 38ft 0kts
02-Oct-22 19:08 45.591934 -122.596984 149 38ft 0kts
02-Oct-22 19:09 45.591934 -122.596984 149 20ft 0kts
02-Oct-22 19:10 45.591934 -122.596984 149 20ft 0kts
02-Oct-22 19:11 45.591934 -122.596984 149 20ft 0kts
02-Oct-22 19:12 45.591934 -122.596984 149 20ft 0kts
02-Oct-22 19:13 45.591934 -122.596984 149 20ft 0kts
02-Oct-22 19:14 45.592033 -122.597066 149 39ft 2kts
02-Oct-22 19:15 45.592495 -122.597448 149 37ft 0kts
02-Oct-22 19:16 45.592495 -122.597448 149 37ft 0kts
02-Oct-22 19:17 45.592495 -122.597448 149 37ft 0kts
02-Oct-22 19:18 45.592495 -122.597448 149 37ft 0kts
02-Oct-22 19:19 45.593476 -122.597546 298 38ft 8kts
02-Oct-22 19:20 45.594380 -122.597599 44 38ft 0kts
02-Oct-22 19:21 45.594471 -122.597471 44 37ft 10kts
02-Oct-22 19:22 45.590991 -122.585845 119 39ft 156kts
02-Oct-22 19:23 45.574796 -122.514802 101 3905ft 218kts
02-Oct-22 19:24 45.558055 -122.418373 105 6772ft 270kts
02-Oct-22 19:25 45.550720 -122.311221 59 10496ft 294kts
02-Oct-22 19:26 45.614847 -122.212245 46 12272ft 369kts
02-Oct-22 19:28 45.672429 -122.087388 65 14996ft 391kts
02-Oct-22 19:29 45.718670 -121.942910 64 17690ft 406kts
02-Oct-22 19:30 45.748309 -121.787028 90 20064ft 422kts
02-Oct-22 19:31 45.745665 -121.616514 89 22264ft 436kts
02-Oct-22 19:32 45.744292 -121.440733 88 24246ft 447kts
02-Oct-22 19:33 45.742835 -121.261065 88 25984ft 456kts
02-Oct-22 19:34 45.741042 -121.077689 89 27589ft 465kts
02-Oct-22 19:35 45.738908 -120.890552 89 29065ft 474kts
02-Oct-22 19:36 45.736420 -120.700411 89 30576ft 476kts
02-Oct-22 19:37 45.733616 -120.511580 89 32252ft 472kts
02-Oct-22 19:38 45.730569 -120.324315 89 33828ft 468kts
02-Oct-22 19:39 45.727243 -120.139631 88 35223ft 463kts
02-Oct-22 19:40 45.723660 -119.956170 89 36526ft 459kts
02-Oct-22 19:41 45.719805 -119.774301 89 37818ft 454kts
02-Oct-22 19:42 45.715709 -119.594275 89 38948ft 451kts
02-Oct-22 19:43 45.711333 -119.414066 89 39067ft 451kts
02-Oct-22 19:44 45.706687 -119.234639 89 39064ft 451kts
02-Oct-22 19:45 45.701784 -119.055976 89 39096ft 450kts
02-Oct-22 19:46 45.699905 -118.878375 82 39102ft 448kts
02-Oct-22 19:47 45.710659 -118.701188 82 39103ft 447kts
02-Oct-22 19:48 45.720034 -118.523768 82 39116ft 447kts
02-Oct-22 19:49 45.728767 -118.346542 82 39155ft 446kts
02-Oct-22 19:50 45.737247 -118.169477 82 39136ft 444kts
02-Oct-22 19:51 45.745423 -117.992966 82 39141ft 444kts
02-Oct-22 19:52 45.753337 -117.816731 82 39144ft 443kts
02-Oct-22 19:53 45.760873 -117.640841 82 39148ft 442kts
02-Oct-22 19:54 45.768187 -117.465212 82 39151ft 442kts
02-Oct-22 19:54 45.774088 -117.319053 82 39150ft 441kts
02-Oct-22 19:55 45.780908 -117.143434 82 39149ft 441kts
02-Oct-22 19:57 45.788553 -116.938308 82 39142ft 442kts
02-Oct-22 19:58 45.794768 -116.762646 82 39138ft 442kts
02-Oct-22 19:58 45.799757 -116.616387 82 39138ft 441kts
02-Oct-22 19:59 45.805515 -116.440298 82 39166ft 442kts
02-Oct-22 20:00 45.810985 -116.264106 83 39187ft 442kts
02-Oct-22 20:01 45.816262 -116.088056 82 39208ft 442kts
02-Oct-22 20:02 45.821182 -115.911526 83 39193ft 442kts
02-Oct-22 20:03 45.825828 -115.734984 83 39334ft 443kts
02-Oct-22 20:04 45.830272 -115.557032 85 39181ft 446kts
02-Oct-22 20:05 45.834434 -115.379148 85 39178ft 446kts
02-Oct-22 20:06 45.838343 -115.201220 86 39180ft 446kts
02-Oct-22 20:07 45.841838 -115.023856 86 39189ft 447kts
02-Oct-22 20:08 45.845185 -114.845493 86 39184ft 447kts
02-Oct-22 20:09 45.848265 -114.666820 86 39206ft 448kts
02-Oct-22 20:10 45.851041 -114.487758 87 39197ft 449kts
02-Oct-22 20:11 45.853539 -114.308598 87 39204ft 449kts
02-Oct-22 20:12 45.855765 -114.129449 87 39203ft 449kts
02-Oct-22 20:13 45.857662 -113.950249 84 39192ft 450kts
02-Oct-22 20:14 45.859392 -113.768998 85 39234ft 455kts
02-Oct-22 20:15 45.860777 -113.587417 85 39236ft 455kts
02-Oct-22 20:16 45.861893 -113.405392 85 39229ft 456kts
02-Oct-22 20:17 45.862709 -113.223539 85 39231ft 458kts
02-Oct-22 20:18 45.863240 -113.040475 86 39222ft 459kts
02-Oct-22 20:19 45.863481 -112.857140 86 39231ft 461kts
02-Oct-22 20:20 45.863433 -112.672886 86 38791ft 463kts
02-Oct-22 20:21 45.863066 -112.490174 85 36702ft 454kts
02-Oct-22 20:22 45.862452 -112.309712 85 34772ft 449kts
02-Oct-22 20:23 45.862081 -112.130207 83 32419ft 451kts
02-Oct-22 20:24 45.867089 -111.949911 83 29914ft 456kts
02-Oct-22 20:25 45.871628 -111.766484 84 27265ft 465kts
02-Oct-22 20:26 45.875615 -111.580525 85 24843ft 466kts
02-Oct-22 20:27 45.879331 -111.395498 85 24293ft 463kts
02-Oct-22 20:28 45.882657 -111.214354 85 24208ft 438kts
02-Oct-22 20:29 45.885718 -111.041158 84 24212ft 433kts
02-Oct-22 20:30 45.920749 -110.879521 66 23266ft 421kts
02-Oct-22 20:31 45.960816 -110.721673 68 22226ft 418kts
02-Oct-22 20:32 45.998795 -110.565128 68 21124ft 413kts
02-Oct-22 20:33 46.036261 -110.409719 69 20175ft 408kts
02-Oct-22 20:34 46.071006 -110.264489 68 19286ft 357kts
02-Oct-22 20:35 46.102922 -110.130339 69 18465ft 355kts
02-Oct-22 20:36 46.134615 -109.996586 69 17599ft 350kts
02-Oct-22 20:37 46.165701 -109.864385 70 16792ft 346kts
02-Oct-22 20:38 46.193183 -109.732826 90 15998ft 343kts
02-Oct-22 20:39 46.165698 -109.600695 108 15207ft 343kts
02-Oct-22 20:40 46.134831 -109.470988 108 14421ft 340kts
02-Oct-22 20:41 46.104832 -109.343349 108 13621ft 333kts
02-Oct-22 20:42 46.075136 -109.217490 109 12836ft 330kts
02-Oct-22 20:43 46.046048 -109.094851 109 12294ft 308kts
02-Oct-22 20:44 46.019816 -108.984823 109 11881ft 275kts
02-Oct-22 20:45 45.995992 -108.885392 109 11485ft 252kts
02-Oct-22 20:46 45.970719 -108.790781 111 10649ft 266kts
02-Oct-22 20:47 45.944495 -108.692906 111 9776ft 247kts
02-Oct-22 20:48 45.919557 -108.599822 111 8953ft 254kts
02-Oct-22 20:49 45.894153 -108.505327 111 7842ft 248kts
02-Oct-22 20:50 45.869531 -108.413935 111 6774ft 247kts
02-Oct-22 20:51 45.845935 -108.326718 111 5966ft 217kts
02-Oct-22 20:52 45.818417 -108.257620 156 5880ft 193kts
02-Oct-22 20:53 45.771553 -108.234181 160 5993ft 171kts
02-Oct-22 20:54 45.738931 -108.259814 269 5876ft 170kts
02-Oct-22 20:55 45.748902 -108.325863 292 5993ft 168kts
02-Oct-22 20:56 45.765530 -108.384920 292 5550ft 146kts
02-Oct-22 20:57 45.780408 -108.438587 292 4748ft 143kts
02-Oct-22 20:58 45.794651 -108.489877 289 3953ft 134kts
02-Oct-22 20:59 45.807259 -108.535077 292 3555ft 63kts
02-Oct-22 21:00 45.807635 -108.540536 201 3556ft 0kts
02-Oct-22 21:01 45.807616 -108.540547 201 3556ft 1kts
02-Oct-22 21:02 45.806726 -108.540162 114 3559ft 7kts
02-Oct-22 21:03 45.805686 -108.536473 113 3556ft 2kts
02-Oct-22 21:04 45.804777 -108.536206 207 3559ft 0kts

Navigation Log

Ident Type
Flight plan parsing failed, navigation log unavailable